Time;durP1;ratioP1;P1;durP2;ratioP2;P2;SDS_P1;SDS_P2;PMS_P1;PMS_P2;Temp;Humidity;BMP_temperature;BMP_pressure;BME280_temperature;BME280_humidity;BME280_pressure;Samples;Min_cycle;Max_cycle;Signal;HPM_P1;HPM_P2
2022/03/25 00:01:54;;;;;;;53.15;33.72;;;;;;;5.69;89.96;67412.22;4979492;28;20050;-75
2022/03/25 00:04:19;;;;;;;58.65;29.98;;;;;;;5.58;90.62;67400.34;4983738;28;20051;-75
2022/03/25 00:06:45;;;;;;;56.25;31.02;;;;;;;5.58;91.56;67395.66;4982462;28;20039;-77
2022/03/25 00:09:10;;;;;;;53.72;31.02;;;;;;;5.50;90.99;67388.69;4964421;28;20461;-77
2022/03/25 00:11:36;;;;;;;56.50;31.67;;;;;;;5.54;91.43;67395.84;4976336;28;20193;-77
2022/03/25 00:14:02;;;;;;;55.97;30.95;;;;;;;;;;4980166;28;20058;-75
2022/03/25 00:16:27;;;;;;;59.60;36.28;;;;;;;5.53;91.08;67394.72;4983294;28;20053;-76
2022/03/25 00:18:54;;;;;;;59.15;34.33;;;;;;;5.57;91.89;67396.56;4979625;28;20046;-77
2022/03/25 00:21:20;;;;;;;57.55;31.98;;;;;;;5.52;91.00;67394.13;4978854;28;20058;-77
2022/03/25 00:23:45;;;;;;;63.70;32.25;;;;;;;5.47;90.99;67385.28;4979710;28;20038;-77
2022/03/25 00:26:10;;;;;;;62.08;33.47;;;;;;;5.43;91.33;67381.88;4982917;28;20042;-76
2022/03/25 00:28:37;;;;;;;60.22;32.15;;;;;;;5.41;91.37;67379.06;4980263;28;20208;-76
2022/03/25 00:31:06;;;;;;;60.85;32.30;;;;;;;5.41;91.35;67379.63;4983472;28;20042;-75
2022/03/25 00:33:32;;;;;;;59.13;33.20;;;;;;;5.33;91.89;67367.41;4978266;28;20106;-77
2022/03/25 00:35:58;;;;;;;57.28;32.20;;;;;;;5.25;93.01;67363.63;4979318;28;22444;-78
2022/03/25 00:38:23;;;;;;;59.47;34.50;;;;;;;5.20;92.92;67353.81;4982211;28;20513;-78
2022/03/25 00:40:49;;;;;;;64.97;36.92;;;;;;;5.22;93.12;67360.25;4977078;28;20395;-77
2022/03/25 00:43:15;;;;;;;67.18;37.60;;;;;;;5.21;93.43;67359.69;4978639;28;20035;-76
2022/03/25 00:45:41;;;;;;;61.67;36.28;;;;;;;5.29;92.98;67368.13;4959551;28;20057;-76
2022/03/25 00:48:07;;;;;;;67.75;34.40;;;;;;;5.33;91.81;67370.03;4981200;28;20046;-77
2022/03/25 00:50:33;;;;;;;58.72;34.20;;;;;;;5.36;92.28;67376.06;4980799;28;20042;-78
2022/03/25 00:52:59;;;;;;;65.20;34.45;;;;;;;5.31;91.90;67367.78;4981952;28;20959;-78
2022/03/25 00:55:24;;;;;;;64.65;35.03;;;;;;;5.22;92.55;67355.53;4985138;28;20045;-79
2022/03/25 00:57:49;;;;;;;63.85;34.25;;;;;;;5.35;92.01;67370.22;4987636;28;20109;-77
2022/03/25 01:00:15;;;;;;;65.40;35.97;;;;;;;5.39;91.41;67376.81;4978071;28;20113;-78
2022/03/25 01:02:40;;;;;;;59.53;35.20;;;;;;;5.37;91.13;67377.75;4981708;28;20047;-79
2022/03/25 01:05:06;;;;;;;62.10;35.38;;;;;;;5.49;91.17;67390.75;4965444;28;20076;-77
2022/03/25 01:07:31;;;;;;;64.93;35.70;;;;;;;5.45;90.48;67386.22;4968160;28;20046;-78
2022/03/25 01:09:57;;;;;;;66.65;36.80;;;;;;;5.35;91.35;67370.22;4981127;28;20038;-78
2022/03/25 01:12:23;;;;;;;61.83;34.88;;;;;;;5.16;91.29;67357.22;4983124;28;20516;-78
2022/03/25 01:14:48;;;;;;;66.10;37.60;;;;;;;5.25;92.37;67363.63;4965909;28;20042;-78
2022/03/25 01:17:16;;;;;;;68.03;37.47;;;;;;;5.25;91.92;67361.00;4988107;28;20453;-78
2022/03/25 01:19:42;;;;;;;66.00;36.30;;;;;;;5.22;91.63;67360.25;4979101;28;20101;-77
2022/03/25 01:22:08;;;;;;;69.25;38.35;;;;;;;5.17;91.75;67353.06;4981049;28;20038;-77
2022/03/25 01:24:33;;;;;;;79.43;39.53;;;;;;;5.18;91.52;67356.28;4981024;28;20133;-76
2022/03/25 01:27:00;;;;;;;71.78;39.25;;;;;;;5.24;91.55;67357.78;4983960;28;20050;-78
2022/03/25 01:29:26;;;;;;;74.70;40.50;;;;;;;5.22;91.14;67360.25;4962593;28;20046;-79
2022/03/25 01:31:52;;;;;;;73.15;42.75;;;;;;;5.09;91.87;67344.06;4965411;28;20062;-77
2022/03/25 01:34:17;;;;;;;77.80;44.78;;;;;;;4.99;92.68;67332.75;4983430;28;20136;-77
2022/03/25 01:36:42;;;;;;;75.82;42.13;;;;;;;5.05;92.48;67342.16;4982200;28;20038;-77
2022/03/25 01:39:08;;;;;;;78.43;44.80;;;;;;;5.08;92.60;67342.91;4980868;28;20073;-79
2022/03/25 01:41:33;;;;;;;75.50;42.15;;;;;;;5.08;92.59;67340.28;4984383;28;20100;-77
2022/03/25 01:44:01;;;;;;;82.75;44.63;;;;;;;4.97;92.58;67331.03;4970838;28;20145;-78
2022/03/25 01:46:27;;;;;;;77.18;42.10;;;;;;;4.97;92.93;67328.41;4981752;28;20406;-78
2022/03/25 01:48:53;;;;;;;81.60;46.58;;;;;;;5.06;92.71;67340.09;4963888;28;20090;-77
2022/03/25 01:51:32;;;;;;;81.80;46.58;;;;;;;5.10;92.43;67345.19;4981031;28;20547;-77
2022/03/25 01:54:03;;;;;;;84.40;46.08;;;;;;;5.08;92.62;67342.34;4985157;28;20802;-77
2022/03/25 01:56:29;;;;;;;87.05;46.80;;;;;;;4.96;93.37;67332.00;4983408;28;20096;-78
2022/03/25 01:58:54;;;;;;;88.60;48.03;;;;;;;4.97;93.68;67333.69;4966705;28;20042;-78
2022/03/25 02:01:21;;;;;;;93.25;54.50;;;;;;;5.01;93.77;67335.00;4985335;28;20050;-77
2022/03/25 02:03:46;;;;;;;89.97;46.40;;;;;;;4.86;93.00;67320.69;4965690;28;20047;-76
2022/03/25 02:06:12;;;;;;;85.40;48.63;;;;;;;4.89;94.01;67324.09;4966641;28;20052;-78
2022/03/25 02:08:37;;;;;;;89.25;45.70;;;;;;;4.78;94.10;67309.03;4985744;28;20038;-78
2022/03/25 02:11:02;;;;;;;85.05;46.58;;;;;;;4.82;95.01;67316.75;4978655;28;20046;-77
2022/03/25 02:13:28;;;;;;;86.57;49.00;;;;;;;4.83;94.76;67317.31;4964433;28;20509;-76
2022/03/25 02:15:55;;;;;;;94.85;51.35;;;;;;;4.77;94.86;67311.09;4981202;28;20726;-78
2022/03/25 02:18:20;;;;;;;87.40;47.03;;;;;;;;;;4982427;28;20048;-77
2022/03/25 02:20:48;;;;;;;92.43;51.10;;;;;;;4.63;95.49;67290.59;4961911;28;20039;-75
2022/03/25 02:23:14;;;;;;;88.93;47.25;;;;;;;4.64;94.81;67294.34;4983507;28;20047;-77
2022/03/25 02:25:41;;;;;;;89.75;47.75;;;;;;;4.67;95.79;67299.81;4964002;28;20069;-78
2022/03/25 02:28:06;;;;;;;91.18;49.22;;;;;;;4.58;95.91;67284.94;4961450;28;20070;-78
2022/03/25 02:30:34;;;;;;;90.82;49.60;;;;;;;4.46;96.74;67279.28;4978235;28;20125;-77
2022/03/25 02:33:01;;;;;;;89.95;49.92;;;;;;;4.46;96.78;67277.22;4961563;28;20039;-78
2022/03/25 02:35:50;;;;;;;94.47;52.95;;;;;;;4.39;96.38;67274.59;4978930;28;20124;-77
2022/03/25 02:38:20;;;;;;;;;;;;;;;4.28;96.98;67257.47;4915250;28;20545;-79
2022/03/25 02:40:46;;;;;;;;;;;;;;;4.15;98.55;67242.25;4977959;28;20353;-76
2022/03/25 02:43:12;;;;;;;96.10;49.28;;;;;;;4.00;98.78;67221.19;4965313;28;19930;-77
2022/03/25 02:45:38;;;;;;;93.10;47.22;;;;;;;4.06;99.35;67232.66;4981751;28;20085;-76
2022/03/25 02:48:04;;;;;;;102.18;52.08;;;;;;;4.22;99.53;67253.31;4979366;28;20138;-76
2022/03/25 02:50:30;;;;;;;96.78;51.72;;;;;;;4.17;98.27;67245.06;4979199;28;20039;-78
2022/03/25 02:52:56;;;;;;;95.80;51.72;;;;;;;;;;4967391;28;20502;-76
2022/03/25 02:55:22;;;;;;;99.60;51.17;;;;;;;4.10;98.92;67231.31;4979897;28;20074;-76
2022/03/25 02:57:48;;;;;;;98.70;53.63;;;;;;;4.18;99.06;67246.19;4983006;28;20101;-77
2022/03/25 03:00:13;;;;;;;98.95;52.03;;;;;;;4.17;98.59;67245.06;4976252;28;20559;-79
2022/03/25 03:02:39;;;;;;;104.55;53.10;;;;;;;4.16;98.62;67238.09;4974769;28;20424;-77
2022/03/25 03:05:07;;;;;;;98.40;52.17;;;;;;;4.15;99.15;67242.81;4984026;28;20043;-78
2022/03/25 03:07:36;;;;;;;100.65;49.20;;;;;;;4.03;99.19;67234.53;4984256;28;20042;-78
2022/03/25 03:10:06;;;;;;;104.35;52.80;;;;;;;4.04;99.24;67225.13;4980084;28;20046;-78
2022/03/25 03:12:32;;;;;;;99.28;53.03;;;;;;;3.96;99.02;67221.91;4986264;28;20042;-77
2022/03/25 03:15:02;;;;;;;107.70;56.17;;;;;;;4.02;100.00;67225.50;4978970;28;20046;-77
2022/03/25 03:17:27;;;;;;;97.60;50.05;;;;;;;3.81;99.26;67205.56;4983556;28;20039;-77
2022/03/25 03:19:54;;;;;;;107.80;52.00;;;;;;;3.97;100.00;67223.06;4978654;28;20050;-78
2022/03/25 03:22:19;;;;;;;102.70;54.45;;;;;;;3.95;99.52;67223.44;4987490;28;20061;-77
2022/03/25 03:24:45;;;;;;;110.25;54.03;;;;;;;3.97;100.00;67220.44;4986549;28;20050;-78
2022/03/25 03:27:11;;;;;;;105.75;52.10;;;;;;;4.03;99.75;67227.19;4980502;28;20042;-78
2022/03/25 03:29:37;;;;;;;107.93;57.03;;;;;;;4.00;99.63;67223.81;4983548;28;20042;-77
2022/03/25 03:32:03;;;;;;;104.75;56.70;;;;;;;3.96;99.62;67221.34;4979459;28;20541;-76
2022/03/25 03:34:29;;;;;;;100.03;52.83;;;;;;;3.81;99.58;67202.94;4981317;28;20054;-78
2022/03/25 03:36:55;;;;;;;106.97;57.25;;;;;;;3.67;100.00;67189.75;4980088;28;20046;-78
2022/03/25 03:39:20;;;;;;;107.53;51.15;;;;;;;3.54;100.00;67175.66;4982801;28;20038;-77
2022/03/25 03:41:45;;;;;;;110.43;55.05;;;;;;;3.60;100.00;67182.44;4967044;28;20046;-77
2022/03/25 03:44:11;;;;;;;111.60;58.80;;;;;;;3.65;100.00;67189.56;4986216;28;20065;-79
2022/03/25 03:46:36;;;;;;;116.35;57.83;;;;;;;3.62;100.00;67178.84;4984384;28;20050;-77
2022/03/25 03:49:03;;;;;;;107.05;55.28;;;;;;;3.55;100.00;67176.78;4987412;28;20416;-76
2022/03/25 03:51:28;;;;;;;108.63;56.03;;;;;;;3.56;100.00;67180.53;4981470;28;20074;-77
2022/03/25 03:53:54;;;;;;;115.50;57.78;;;;;;;3.54;100.00;67175.09;4980450;28;20592;-78
2022/03/25 03:56:19;;;;;;;116.03;56.08;;;;;;;3.53;100.00;67171.34;4981447;28;20050;-76
2022/03/25 03:58:44;;;;;;;112.80;55.22;;;;;;;3.52;100.00;67170.22;4980804;28;20082;-77
2022/03/25 04:01:10;;;;;;;113.85;58.30;;;;;;;3.52;100.00;67176.03;4982734;28;20395;-77
2022/03/25 04:03:35;;;;;;;107.35;58.15;;;;;;;3.53;100.00;67171.34;4980730;28;20035;-77
2022/03/25 04:06:01;;;;;;;120.22;60.20;;;;;;;3.45;100.00;67162.88;4988709;28;20418;-76
2022/03/25 04:08:26;;;;;;;129.38;65.20;;;;;;;3.56;100.00;67177.34;4986773;28;20396;-77
2022/03/25 04:10:52;;;;;;;114.68;60.33;;;;;;;3.54;100.00;67175.66;4982530;28;20043;-79
2022/03/25 04:13:17;;;;;;;128.68;63.67;;;;;;;3.53;100.00;67174.53;4979494;28;20053;-78
2022/03/25 04:15:43;;;;;;;121.45;61.17;;;;;;;3.45;100.00;67164.94;4962938;28;20589;-77
2022/03/25 04:18:08;;;;;;;128.68;65.25;;;;;;;3.50;100.00;67173.22;4987528;28;20038;-77
2022/03/25 04:20:34;;;;;;;120.85;58.25;;;;;;;3.48;100.00;67165.69;4989417;28;20045;-78
2022/03/25 04:23:00;;;;;;;126.53;56.78;;;;;;;3.37;100.00;67157.06;4972407;28;20425;-77
2022/03/25 04:25:25;;;;;;;134.88;67.70;;;;;;;3.45;100.00;67162.31;4988991;28;20121;-77
2022/03/25 04:27:54;;;;;;;128.52;65.10;;;;;;;;;;4980857;28;20098;-78
2022/03/25 04:30:28;;;;;;;122.78;64.30;;;;;;;3.37;100.00;67157.06;4980387;28;20084;-76
2022/03/25 04:32:54;;;;;;;124.85;67.80;;;;;;;3.43;100.00;67160.06;4976211;28;20062;-78
2022/03/25 04:35:20;;;;;;;126.03;67.13;;;;;;;3.34;100.00;67148.41;4979064;28;20036;-76
2022/03/25 04:37:46;;;;;;;127.95;66.10;;;;;;;3.30;100.00;67149.16;4981031;28;20506;-78
2022/03/25 04:40:15;;;;;;;129.98;64.80;;;;;;;3.36;100.00;67152.72;4968692;28;20078;-77
2022/03/25 04:42:41;;;;;;;135.30;69.72;;;;;;;3.33;100.00;67152.53;4985344;28;20788;-77
2022/03/25 04:45:07;;;;;;;124.85;62.75;;;;;;;3.30;100.00;67143.31;4981841;28;20058;-78
2022/03/25 04:47:32;;;;;;;124.50;66.50;;;;;;;3.35;100.00;67149.53;4983291;28;20078;-77
2022/03/25 04:49:57;;;;;;;136.30;62.53;;;;;;;3.28;100.00;67143.69;4981485;28;20044;-78
2022/03/25 04:52:23;;;;;;;130.25;69.90;;;;;;;3.22;100.00;67134.88;4973530;28;20118;-76
2022/03/25 04:54:48;;;;;;;136.93;66.25;;;;;;;3.12;100.00;67129.41;4978081;28;20401;-77
2022/03/25 04:57:13;;;;;;;139.25;72.07;;;;;;;3.13;100.00;67130.53;4960250;28;20039;-78
2022/03/25 04:59:38;;;;;;;130.63;65.20;;;;;;;3.13;100.00;67132.59;4967557;28;20038;-77
2022/03/25 05:02:04;;;;;;;136.77;65.97;;;;;;;3.11;100.00;67127.75;4978510;28;20053;-77
2022/03/25 05:04:29;;;;;;;134.70;68.75;;;;;;;3.06;100.00;67117.41;4983666;28;20046;-77
2022/03/25 05:06:55;;;;;;;132.30;69.53;;;;;;;3.01;100.00;67119.63;4980473;28;20173;-76
2022/03/25 05:09:20;;;;;;;133.65;65.90;;;;;;;3.00;100.00;67117.97;4981956;28;20073;-78
2022/03/25 05:11:45;;;;;;;130.95;68.00;;;;;;;3.07;100.00;67120.59;4987896;28;20404;-77
2022/03/25 05:14:10;;;;;;;124.28;63.90;;;;;;;3.03;100.00;67118.72;4986866;28;20125;-78
2022/03/25 05:16:36;;;;;;;128.05;66.35;;;;;;;2.96;100.00;67108.19;4966171;28;20443;-77
2022/03/25 05:19:02;;;;;;;127.40;63.88;;;;;;;2.85;100.00;67102.19;4984762;28;20060;-77
2022/03/25 05:21:28;;;;;;;129.43;68.18;;;;;;;2.81;100.00;67095.03;4982159;28;20042;-79
2022/03/25 05:23:53;;;;;;;136.55;69.65;;;;;;;2.78;100.00;67091.66;4961316;28;20058;-78
2022/03/25 05:26:20;;;;;;;133.18;66.45;;;;;;;2.71;100.00;67083.75;4974310;28;20453;-78
2022/03/25 05:28:45;;;;;;;132.75;67.30;;;;;;;2.69;100.00;67081.50;4965430;28;20050;-77
2022/03/25 05:31:11;;;;;;;131.60;65.68;;;;;;;2.64;100.00;67075.88;4980906;28;20057;-78
2022/03/25 05:33:37;;;;;;;138.23;72.45;;;;;;;2.66;100.00;67078.13;4985829;28;20081;-77
2022/03/25 05:36:03;;;;;;;134.98;64.93;;;;;;;2.62;100.00;67078.88;4981705;28;20078;-76
2022/03/25 05:38:30;;;;;;;136.27;65.30;;;;;;;2.65;100.00;67071.75;4974144;28;20140;-77
2022/03/25 05:40:55;;;;;;;142.93;66.50;;;;;;;2.53;100.00;67064.03;4985074;28;20222;-78
2022/03/25 05:43:21;;;;;;;138.40;67.72;;;;;;;2.59;100.00;67070.81;4967199;28;20125;-77
2022/03/25 05:45:46;;;;;;;127.85;62.20;;;;;;;2.58;100.00;67071.72;4962566;28;20125;-76
2022/03/25 05:48:12;;;;;;;140.98;69.15;;;;;;;2.69;100.00;67081.50;4981736;28;20077;-78
2022/03/25 05:50:37;;;;;;;137.38;67.18;;;;;;;2.64;100.00;67079.06;4982307;28;20038;-78
2022/03/25 05:53:03;;;;;;;140.82;66.10;;;;;;;2.63;100.00;67074.75;4986688;28;20121;-79
2022/03/25 05:55:28;;;;;;;124.22;56.80;;;;;;;2.62;100.00;67074.19;4965766;28;20038;-77
2022/03/25 05:57:54;;;;;;;139.43;70.82;;;;;;;2.74;100.00;67083.97;4981706;28;20054;-77
2022/03/25 06:00:19;;;;;;;127.88;61.55;;;;;;;2.66;100.00;67078.69;4981379;28;20046;-75
2022/03/25 06:02:45;;;;;;;132.52;62.95;;;;;;;2.57;100.00;67067.97;4963769;28;20042;-76
2022/03/25 06:05:11;;;;;;;139.00;65.03;;;;;;;2.64;100.00;67076.44;4979293;28;20074;-76
2022/03/25 06:07:39;;;;;;;140.27;64.20;;;;;;;2.67;100.00;67079.81;4969014;28;20043;-76
2022/03/25 06:10:07;;;;;;;148.93;69.38;;;;;;;2.84;100.00;67098.41;4933686;28;20046;-74
2022/03/25 06:12:33;;;;;;;149.77;73.78;;;;;;;2.94;100.00;67104.44;4951802;28;20063;-76
2022/03/25 06:14:58;;;;;;;131.43;63.72;;;;;;;2.96;100.00;67111.38;4951981;28;20438;-76
2022/03/25 06:17:24;;;;;;;156.07;75.13;;;;;;;3.04;100.00;67122.47;4932773;28;20108;-77
2022/03/25 06:19:49;;;;;;;165.02;75.93;;;;;;;3.14;100.00;67131.13;4952332;28;20510;-77
2022/03/25 06:22:15;;;;;;;162.20;74.30;;;;;;;3.24;100.00;67137.13;4953351;28;20047;-76
2022/03/25 06:24:40;;;;;;;142.75;72.47;;;;;;;3.24;100.00;67142.38;4950050;28;20047;-77
2022/03/25 06:27:06;;;;;;;148.38;73.28;;;;;;;3.29;100.00;67144.84;4951985;28;20057;-77
2022/03/25 06:29:31;;;;;;;158.40;78.90;;;;;;;3.34;100.00;67153.66;4952259;28;20545;-77
2022/03/25 06:31:56;;;;;;;150.50;77.97;;;;;;;3.47;100.00;67167.19;4954113;28;20050;-76
2022/03/25 06:34:23;;;;;;;149.20;72.47;;;;;;;3.40;100.00;67157.25;4963244;28;20108;-76
2022/03/25 06:36:49;;;;;;;154.38;73.85;;;;;;;3.41;100.00;67160.44;4980561;28;20566;-77
2022/03/25 06:39:15;;;;;;;158.25;81.45;;;;;;;3.60;100.00;67179.81;4976258;28;20087;-76
2022/03/25 06:41:40;;;;;;;163.95;78.00;;;;;;;3.70;100.00;67192.59;4975600;28;20046;-77
2022/03/25 06:44:06;;;;;;;163.82;82.55;;;;;;;3.81;100.00;67202.94;4977734;28;20055;-77
2022/03/25 06:46:32;;;;;;;157.95;78.07;;;;;;;3.73;100.00;67191.25;4957659;28;20034;-77
2022/03/25 06:48:58;;;;;;;170.90;84.90;;;;;;;3.83;100.00;67207.81;4973687;28;20148;-77
2022/03/25 06:51:23;;;;;;;162.48;79.63;;;;;;;3.95;100.00;67220.78;4978764;28;20493;-76
2022/03/25 06:53:49;;;;;;;174.05;84.00;;;;;;;4.07;100.00;67233.78;4973434;28;20037;-77
2022/03/25 06:56:15;;;;;;;170.20;84.20;;;;;;;4.13;100.00;67239.97;4980293;28;20105;-76
2022/03/25 06:58:41;;;;;;;169.93;81.10;;;;;;;4.19;100.00;67249.38;4977355;28;20540;-77
2022/03/25 07:01:06;;;;;;;174.05;85.78;;;;;;;4.23;100.00;67251.84;4980333;28;20047;-76
2022/03/25 07:03:33;;;;;;;171.15;92.85;;;;;;;4.36;100.00;67265.38;4958031;28;20129;-76
2022/03/25 07:06:02;;;;;;;175.27;100.10;;;;;;;4.46;100.00;67277.22;4976854;28;20510;-76
2022/03/25 07:08:29;;;;;;;167.50;89.93;;;;;;;4.56;100.00;67287.41;4973980;28;20065;-76
2022/03/25 07:10:55;;;;;;;167.05;88.05;;;;;;;4.61;100.00;67298.88;4974927;28;20046;-76
2022/03/25 07:13:20;;;;;;;160.15;93.18;;;;;;;4.71;100.00;67299.63;4957683;28;20042;-77
2022/03/25 07:15:46;;;;;;;157.77;89.28;;;;;;;4.81;100.00;67315.06;4977938;28;20552;-75
2022/03/25 07:18:11;;;;;;;156.90;89.07;;;;;;;4.88;100.00;67323.53;4969642;28;20094;-77
2022/03/25 07:20:36;;;;;;;158.68;94.47;;;;;;;5.00;100.00;67336.50;4956214;28;20046;-77
2022/03/25 07:23:02;;;;;;;160.82;92.35;;;;;;;5.05;100.00;67338.97;4976581;28;20390;-77
2022/03/25 07:25:31;;;;;;;157.80;90.85;;;;;;;5.14;100.00;67347.03;4979484;28;20136;-77
2022/03/25 07:27:57;;;;;;;156.65;95.80;;;;;;;5.24;100.00;67359.88;4977761;28;20085;-77
2022/03/25 07:30:22;;;;;;;157.30;91.50;;;;;;;5.32;100.00;67366.25;4978913;28;20112;-76
2022/03/25 07:32:48;;;;;;;156.73;93.47;;;;;;;5.38;100.00;67376.25;4958019;28;22124;-77
2022/03/25 07:35:14;;;;;;;156.05;94.20;;;;;;;5.38;100.00;67373.59;4979072;28;20039;-77
2022/03/25 07:37:41;;;;;;;154.43;91.55;;;;;;;5.41;100.00;67376.44;4972209;28;20053;-77
2022/03/25 07:40:10;;;;;;;152.95;91.93;;;;;;;5.51;100.00;67393.00;4957408;28;20038;-75
2022/03/25 07:42:40;;;;;;;154.18;90.18;;;;;;;5.58;100.00;67395.66;4975144;28;20054;-77
2022/03/25 07:45:10;;;;;;;155.93;90.32;;;;;;;5.71;100.00;67414.47;4963752;28;20577;-77
2022/03/25 07:47:47;;;;;;;154.75;95.00;;;;;;;5.78;100.00;67422.38;4978145;28;20043;-77
2022/03/25 07:50:15;;;;;;;150.80;92.00;;;;;;;5.85;100.00;67425.03;4977493;28;20050;-77
2022/03/25 07:52:41;;;;;;;149.25;90.78;;;;;;;5.93;100.00;67433.47;4979713;28;20629;-77
2022/03/25 07:55:09;;;;;;;151.40;91.78;;;;;;;5.98;100.00;67445.00;4982456;28;20125;-77
2022/03/25 07:57:35;;;;;;;148.40;87.90;;;;;;;6.06;100.00;67453.50;4980360;28;20038;-77
2022/03/25 08:00:02;;;;;;;148.77;87.07;;;;;;;6.13;100.00;67458.19;4980060;28;20109;-77
2022/03/25 08:02:27;;;;;;;148.07;89.53;;;;;;;6.15;100.00;67463.09;4979524;28;20043;-77
2022/03/25 08:04:52;;;;;;;148.18;91.50;;;;;;;6.20;100.00;67463.47;4982704;28;20066;-76
2022/03/25 08:07:19;;;;;;;152.25;85.70;;;;;;;6.26;100.00;67470.25;4982174;28;20077;-75
2022/03/25 08:09:44;;;;;;;144.93;84.65;;;;;;;6.41;100.00;67486.66;4978126;28;20038;-77
2022/03/25 08:12:10;;;;;;;141.85;87.03;;;;;;;6.54;100.00;67507.22;4981869;28;20402;-77
2022/03/25 08:14:35;;;;;;;143.63;89.32;;;;;;;6.61;100.00;67511.34;4984501;28;20042;-77
2022/03/25 08:17:00;;;;;;;140.35;79.65;;;;;;;6.74;100.00;67523.41;4980894;28;20054;-77
2022/03/25 08:19:26;;;;;;;135.88;84.40;;;;;;;6.84;99.58;67540.00;4981011;28;20054;-77
2022/03/25 08:21:51;;;;;;;136.05;86.32;;;;;;;6.93;98.74;67546.97;4965045;28;20046;-77
2022/03/25 08:29:45;;;;;;;132.95;84.57;;;;;;;7.20;97.62;67574.34;4978130;28;20093;-77
2022/03/25 08:32:11;;;;;;;133.63;82.28;;;;;;;7.27;97.47;67587.53;4978995;28;20051;-77
2022/03/25 08:34:36;;;;;;;135.18;87.25;;;;;;;7.42;97.66;67599.22;4964430;28;20050;-77
2022/03/25 08:37:02;;;;;;;135.68;72.50;;;;;;;7.59;96.86;67617.88;4981045;28;20066;-77
2022/03/25 08:39:27;;;;;;;132.93;74.07;;;;;;;7.80;97.46;67640.56;4960157;28;20542;-77
2022/03/25 08:41:53;;;;;;;137.60;83.18;;;;;;;7.89;95.31;67651.28;4978793;28;20054;-76
2022/03/25 08:44:18;;;;;;;130.23;77.15;;;;;;;8.10;94.06;67673.94;4960161;28;20058;-77
2022/03/25 08:46:43;;;;;;;124.47;78.07;;;;;;;8.32;93.08;67698.88;4961803;28;20050;-76
2022/03/25 08:49:12;;;;;;;131.10;71.20;;;;;;;;;;4976523;28;20498;-75
2022/03/25 08:51:38;;;;;;;124.03;69.85;;;;;;;;;;4981351;28;20601;-75
2022/03/25 08:54:03;;;;;;;120.32;67.80;;;;;;;8.76;93.10;67747.59;4975934;28;20053;-76
2022/03/25 08:56:29;;;;;;;122.45;73.20;;;;;;;8.89;93.44;67764.44;4962843;28;20042;-77
2022/03/25 08:58:58;;;;;;;116.97;62.45;;;;;;;9.01;91.30;67777.47;4974910;28;20046;-77
2022/03/25 09:01:23;;;;;;;121.20;69.68;;;;;;;;;;4980825;28;20050;-76
2022/03/25 09:03:49;;;;;;;115.30;62.67;;;;;;;9.28;90.05;67807.47;4978869;28;20133;-77
2022/03/25 09:06:14;;;;;;;117.78;67.05;;;;;;;9.44;89.95;67822.41;4979827;28;20084;-77
2022/03/25 09:08:40;;;;;;;115.65;62.65;;;;;;;9.40;87.26;67821.09;4979745;28;20043;-76
2022/03/25 09:11:05;;;;;;;110.90;71.75;;;;;;;9.38;85.78;67815.59;4980903;28;20046;-77
2022/03/25 09:13:31;;;;;;;114.13;67.93;;;;;;;9.51;87.14;67830.34;4981669;28;20066;-76
2022/03/25 09:15:56;;;;;;;112.13;62.40;;;;;;;9.78;86.51;67860.41;4976086;28;20059;-76
2022/03/25 09:18:21;;;;;;;111.70;67.07;;;;;;;;;;4982592;28;20152;-76
2022/03/25 09:20:47;;;;;;;109.33;64.77;;;;;;;10.07;84.93;67892.13;4977899;28;20133;-76
2022/03/25 09:23:13;;;;;;;105.18;64.05;;;;;;;10.13;84.54;67904.84;4974597;28;20645;-77
2022/03/25 09:25:38;;;;;;;103.57;61.28;;;;;;;10.27;83.05;67916.94;4982108;28;20050;-77
2022/03/25 09:28:05;;;;;;;98.47;64.63;;;;;;;10.37;81.80;67925.63;4983510;28;22045;-76
2022/03/25 09:30:31;;;;;;;99.35;60.97;;;;;;;10.43;81.05;67932.44;4979455;28;20089;-77
2022/03/25 09:32:56;;;;;;;101.50;59.20;;;;;;;10.76;81.47;67968.75;4980917;28;21077;-76
2022/03/25 09:35:22;;;;;;;88.82;50.10;;;;;;;10.93;80.01;67987.47;4981011;28;20065;-77
2022/03/25 09:37:50;;;;;;;106.22;58.92;;;;;;;10.96;80.22;67991.47;4979887;28;20050;-76
2022/03/25 09:40:22;;;;;;;96.63;55.47;;;;;;;11.08;80.47;68004.53;4985693;28;20506;-76
2022/03/25 09:42:50;;;;;;;100.85;63.53;;;;;;;11.18;78.44;68015.31;4960787;28;20521;-76
2022/03/25 09:45:16;;;;;;;98.05;58.38;;;;;;;;;;4978951;28;20047;-77
2022/03/25 09:47:44;;;;;;;97.72;56.40;;;;;;;;;;4981210;28;20038;-76
2022/03/25 09:50:13;;;;;;;97.35;58.83;;;;;;;11.51;78.93;68052.78;4977165;28;20050;-76
2022/03/25 09:52:40;;;;;;;96.20;56.65;;;;;;;11.67;77.06;68069.81;4978844;28;20038;-77
2022/03/25 09:55:05;;;;;;;99.30;55.42;;;;;;;11.89;77.31;68096.94;4979444;28;20047;-76
2022/03/25 09:57:32;;;;;;;90.82;52.67;;;;;;;11.92;76.71;68098.22;4979184;28;20050;-77
2022/03/25 09:59:58;;;;;;;96.15;60.10;;;;;;;11.97;77.19;68103.34;4978133;28;20133;-77
2022/03/25 10:02:26;;;;;;;88.72;54.90;;;;;;;12.00;74.64;68106.75;4981370;28;20054;-77
2022/03/25 10:04:53;;;;;;;89.28;49.30;;;;;;;12.11;75.04;68119.25;4956000;28;20059;-76
2022/03/25 10:07:21;;;;;;;97.15;54.17;;;;;;;12.33;75.33;68143.69;4977804;28;20137;-77
2022/03/25 10:09:49;;;;;;;95.53;57.53;;;;;;;12.39;73.58;68153.16;4956800;28;20066;-77
2022/03/25 10:12:23;;;;;;;87.40;49.47;;;;;;;12.48;72.16;68159.59;4980814;28;20046;-77
2022/03/25 10:14:51;;;;;;;90.00;52.72;;;;;;;12.55;73.14;68170.78;4954502;28;20074;-77
2022/03/25 10:17:16;;;;;;;81.63;49.88;;;;;;;;;;4976294;28;20054;-76
2022/03/25 10:19:54;;;;;;;89.53;56.28;;;;;;;12.78;70.27;68193.69;4977117;28;20050;-76
2022/03/25 10:22:20;;;;;;;85.00;56.45;;;;;;;12.65;69.90;68179.47;4958657;28;20445;-77
2022/03/25 10:24:48;;;;;;;83.35;54.67;;;;;;;12.72;70.52;68189.56;4977107;28;20045;-76
2022/03/25 10:27:21;;;;;;;84.32;57.30;;;;;;;;;;4981499;28;20074;-76
2022/03/25 10:29:47;;;;;;;79.07;50.42;;;;;;;12.92;70.35;68208.47;4973068;28;20077;-76
2022/03/25 10:32:15;;;;;;;78.80;51.58;;;;;;;13.20;68.63;68239.75;4979029;28;20062;-77
2022/03/25 10:34:42;;;;;;;83.00;46.53;;;;;;;13.21;66.88;68236.13;4985178;28;20046;-76
2022/03/25 10:37:13;;;;;;;79.75;47.85;;;;;;;13.45;69.07;68268.19;4982742;28;20589;-76
2022/03/25 10:39:39;;;;;;;76.68;44.33;;;;;;;13.69;66.60;68289.56;4983438;28;20120;-77
2022/03/25 10:42:07;;;;;;;74.97;45.08;;;;;;;13.88;65.42;68315.41;4970329;28;20035;-76
2022/03/25 10:44:33;;;;;;;74.63;45.35;;;;;;;13.98;65.92;68327.38;4987118;28;20042;-76
2022/03/25 10:46:58;;;;;;;77.20;47.80;;;;;;;;;;4968904;28;20046;-77
2022/03/25 10:49:24;;;;;;;79.25;51.22;;;;;;;;;;4986995;28;20042;-76
2022/03/25 10:51:53;;;;;;;72.30;42.57;;;;;;;;;;4986723;28;20065;-77
2022/03/25 10:54:21;;;;;;;;;;;;;;;14.26;63.38;68360.19;4988097;28;20289;-77
2022/03/25 10:56:55;;;;;;;75.15;42.95;;;;;;;14.11;63.39;68335.66;4987146;28;19921;-76
2022/03/25 10:59:23;;;;;;;75.82;48.15;;;;;;;;;;4969500;28;20538;-77
2022/03/25 11:01:50;;;;;;;67.20;41.13;;;;;;;;;;4987249;28;20047;-77
2022/03/25 11:04:16;;;;;;;69.38;49.67;;;;;;;;;;4986675;28;20356;-76
2022/03/25 11:06:42;;;;;;;72.60;40.28;;;;;;;;;;4986614;28;20713;-76
2022/03/25 11:09:08;;;;;;;70.28;44.20;;;;;;;;;;4987619;28;20077;-77
2022/03/25 11:15:25;;;;;;;64.03;40.58;;;;;;;14.83;62.14;68415.94;4967624;28;20128;-77
2022/03/25 11:17:51;;;;;;;59.90;41.17;;;;;;;;;;4981075;28;20441;-77
2022/03/25 11:20:18;;;;;;;60.77;42.27;;;;;;;;;;4986254;28;20096;-76
2022/03/25 11:23:00;;;;;;;58.03;38.88;;;;;;;15.04;57.81;68444.63;4969055;28;20320;-77
2022/03/25 11:25:29;;;;;;;62.35;40.60;;;;;;;15.13;58.33;68454.88;4989827;28;20092;-76
2022/03/25 11:28:00;;;;;;;57.97;38.63;;;;;;;15.28;58.00;68466.06;4973353;28;20137;-76
2022/03/25 11:30:30;;;;;;;55.70;31.83;;;;;;;15.56;56.56;68502.72;4991084;28;20114;-76
2022/03/25 11:33:04;;;;;;;51.28;32.38;;;;;;;15.61;54.53;68503.06;4990673;28;20047;-77
2022/03/25 11:35:41;;;;;;;54.65;33.85;;;;;;;;;;4973559;28;20092;-76